sensor_id;sensor_type;location;lat;lon;timestamp;temperature;humidity
2407;DHT22;37709;53.480;9.688;2023-06-05T06:32:30;29.30;37.10
2407;DHT22;37709;53.480;9.688;2023-06-05T06:34:57;15.80;99.90
2407;DHT22;37709;53.480;9.688;2023-06-05T06:37:24;17.00;99.90
2407;DHT22;37709;53.480;9.688;2023-06-05T06:39:52;18.70;99.90
2407;DHT22;37709;53.480;9.688;2023-06-05T06:42:19;20.30;99.90
2407;DHT22;37709;53.480;9.688;2023-06-05T06:45:00;21.60;99.90
2407;DHT22;37709;53.480;9.688;2023-06-05T06:47:28;22.90;99.90
2407;DHT22;37709;53.480;9.688;2023-06-05T06:49:56;23.80;99.90
2407;DHT22;37709;53.480;9.688;2023-06-05T06:52:24;24.50;99.90
2407;DHT22;37709;53.480;9.688;2023-06-05T06:54:52;25.00;99.90
2407;DHT22;37709;53.480;9.688;2023-06-05T06:57:20;25.70;99.90
2407;DHT22;37709;53.480;9.688;2023-06-05T06:59:47;26.30;99.90
2407;DHT22;37709;53.480;9.688;2023-06-05T07:02:17;26.30;95.20
2407;DHT22;37709;53.480;9.688;2023-06-05T07:04:45;26.30;94.10
2407;DHT22;37709;53.480;9.688;2023-06-05T07:07:14;26.90;94.30
2407;DHT22;37709;53.480;9.688;2023-06-05T07:09:43;27.60;93.20
2407;DHT22;37709;53.480;9.688;2023-06-05T07:12:14;28.30;91.50
2407;DHT22;37709;53.480;9.688;2023-06-05T07:14:42;28.60;84.40
2407;DHT22;37709;53.480;9.688;2023-06-05T07:17:10;28.60;79.50
2407;DHT22;37709;53.480;9.688;2023-06-05T07:29:33;29.20;76.30
2407;DHT22;37709;53.480;9.688;2023-06-05T23:12:43;31.10;65.70
2407;DHT22;37709;53.480;9.688;2023-06-05T23:15:11;11.40;99.90
2407;DHT22;37709;53.480;9.688;2023-06-05T23:17:39;10.90;99.90
2407;DHT22;37709;53.480;9.688;2023-06-05T23:20:07;10.80;99.90
2407;DHT22;37709;53.480;9.688;2023-06-05T23:22:34;10.70;99.90
2407;DHT22;37709;53.480;9.688;2023-06-05T23:25:02;10.60;99.90
2407;DHT22;37709;53.480;9.688;2023-06-05T23:27:32;10.60;99.90
2407;DHT22;37709;53.480;9.688;2023-06-05T23:30:03;10.50;99.90
2407;DHT22;37709;53.480;9.688;2023-06-05T23:32:31;10.50;99.90
2407;DHT22;37709;53.480;9.688;2023-06-05T23:34:58;10.40;99.90
2407;DHT22;37709;53.480;9.688;2023-06-05T23:37:25;10.40;99.90
2407;DHT22;37709;53.480;9.688;2023-06-05T23:39:52;10.30;99.90
2407;DHT22;37709;53.480;9.688;2023-06-05T23:42:20;10.30;99.90
2407;DHT22;37709;53.480;9.688;2023-06-05T23:44:49;10.30;99.90
2407;DHT22;37709;53.480;9.688;2023-06-05T23:47:17;10.20;99.90
2407;DHT22;37709;53.480;9.688;2023-06-05T23:49:44;10.10;99.90
2407;DHT22;37709;53.480;9.688;2023-06-05T23:52:13;10.10;99.90
2407;DHT22;37709;53.480;9.688;2023-06-05T23:54:40;10.10;99.90
2407;DHT22;37709;53.480;9.688;2023-06-05T23:57:08;10.10;99.90
2407;DHT22;37709;53.480;9.688;2023-06-05T23:59:35;10.10;99.90
